sensor_id;sensor_type;location;lat;lon;timestamp;pressure;altitude;pressure_sealevel;temperature;humidity
29215;BME280;16252;49.816;7.964;2023-02-19T00:01:39;100452.75;;;12.96;60.26
29215;BME280;16252;49.816;7.964;2023-02-19T00:06:38;100435.56;;;12.87;60.21
29215;BME280;16252;49.816;7.964;2023-02-19T00:09:04;100428.59;;;12.85;60.18
29215;BME280;16252;49.816;7.964;2023-02-19T00:11:31;100440.09;;;12.87;60.48
29215;BME280;16252;49.816;7.964;2023-02-19T00:13:58;100451.06;;;12.95;60.49
29215;BME280;16252;49.816;7.964;2023-02-19T00:16:37;100432.00;;;12.98;60.19
29215;BME280;16252;49.816;7.964;2023-02-19T00:19:05;100410.53;;;12.87;60.28
29215;BME280;16252;49.816;7.964;2023-02-19T00:21:31;100428.97;;;12.91;60.39
29215;BME280;16252;49.816;7.964;2023-02-19T00:24:00;100384.53;;;12.65;60.43
29215;BME280;16252;49.816;7.964;2023-02-19T00:26:26;100412.09;;;12.78;60.48
29215;BME280;16252;49.816;7.964;2023-02-19T00:28:52;100432.13;;;12.85;60.38
29215;BME280;16252;49.816;7.964;2023-02-19T00:31:24;100437.03;;;12.91;60.28
29215;BME280;16252;49.816;7.964;2023-02-19T00:33:52;100448.00;;;12.88;60.61
29215;BME280;16252;49.816;7.964;2023-02-19T00:36:18;100438.72;;;12.81;60.58
29215;BME280;16252;49.816;7.964;2023-02-19T00:38:43;100454.25;;;12.89;60.40
29215;BME280;16252;49.816;7.964;2023-02-19T00:41:11;100460.47;;;12.89;60.83
29215;BME280;16252;49.816;7.964;2023-02-19T00:43:51;100459.22;;;12.93;60.75
29215;BME280;16252;49.816;7.964;2023-02-19T00:48:50;100464.84;;;12.90;60.72
29215;BME280;16252;49.816;7.964;2023-02-19T00:51:17;100442.88;;;12.85;60.83
29215;BME280;16252;49.816;7.964;2023-02-19T00:53:42;100406.88;;;12.88;60.81
29215;BME280;16252;49.816;7.964;2023-02-19T00:56:08;100407.97;;;12.85;60.55
29215;BME280;16252;49.816;7.964;2023-02-19T00:58:34;100403.56;;;12.73;60.80
29215;BME280;16252;49.816;7.964;2023-02-19T01:00:59;100406.00;;;12.76;61.22
29215;BME280;16252;49.816;7.964;2023-02-19T01:03:24;100415.88;;;12.75;61.23
29215;BME280;16252;49.816;7.964;2023-02-19T01:05:50;100426.53;;;12.77;61.29
29215;BME280;16252;49.816;7.964;2023-02-19T01:08:16;100424.31;;;12.71;61.35
29215;BME280;16252;49.816;7.964;2023-02-19T01:10:41;100427.97;;;12.70;61.63
29215;BME280;16252;49.816;7.964;2023-02-19T01:13:07;100419.44;;;12.65;61.67
29215;BME280;16252;49.816;7.964;2023-02-19T01:15:33;100420.53;;;12.62;61.94
29215;BME280;16252;49.816;7.964;2023-02-19T01:17:58;100416.97;;;12.62;61.75
29215;BME280;16252;49.816;7.964;2023-02-19T01:20:24;100417.72;;;12.64;62.00
29215;BME280;16252;49.816;7.964;2023-02-19T01:22:50;100416.97;;;12.62;62.09
29215;BME280;16252;49.816;7.964;2023-02-19T01:25:15;100414.41;;;12.60;61.94
29215;BME280;16252;49.816;7.964;2023-02-19T01:27:41;100413.22;;;12.64;61.88
29215;BME280;16252;49.816;7.964;2023-02-19T01:30:06;100418.44;;;12.66;62.17
29215;BME280;16252;49.816;7.964;2023-02-19T01:32:32;100384.53;;;12.53;62.05
29215;BME280;16252;49.816;7.964;2023-02-19T01:34:57;100412.84;;;12.69;61.95
29215;BME280;16252;49.816;7.964;2023-02-19T01:37:22;100412.97;;;12.67;61.89
29215;BME280;16252;49.816;7.964;2023-02-19T01:39:48;100408.56;;;12.66;62.02
29215;BME280;16252;49.816;7.964;2023-02-19T01:42:15;100414.19;;;12.74;61.90
29215;BME280;16252;49.816;7.964;2023-02-19T01:47:09;100385.63;;;12.51;61.96
29215;BME280;16252;49.816;7.964;2023-02-19T01:49:55;100400.03;;;12.72;61.64
29215;BME280;16252;49.816;7.964;2023-02-19T01:52:31;100384.41;;;12.66;61.96
29215;BME280;16252;49.816;7.964;2023-02-19T01:55:00;100405.16;;;12.75;62.13
29215;BME280;16252;49.816;7.964;2023-02-19T01:57:28;100403.31;;;12.76;62.16
29215;BME280;16252;49.816;7.964;2023-02-19T02:00:02;100404.91;;;12.78;61.99
29215;BME280;16252;49.816;7.964;2023-02-19T02:02:30;100386.00;;;12.69;61.83
29215;BME280;16252;49.816;7.964;2023-02-19T02:04:56;100355.84;;;12.54;61.81
29215;BME280;16252;49.816;7.964;2023-02-19T02:07:23;100358.53;;;12.54;61.82
29215;BME280;16252;49.816;7.964;2023-02-19T02:10:07;100337.19;;;12.41;61.73
29215;BME280;16252;49.816;7.964;2023-02-19T02:12:49;100369.00;;;12.68;61.95
29215;BME280;16252;49.816;7.964;2023-02-19T02:15:17;100375.63;;;12.64;61.84
29215;BME280;16252;49.816;7.964;2023-02-19T02:17:52;100364.16;;;12.62;61.58
29215;BME280;16252;49.816;7.964;2023-02-19T02:20:48;100358.41;;;12.67;61.21
29215;BME280;16252;49.816;7.964;2023-02-19T02:23:43;100332.66;;;12.53;61.78
29215;BME280;16252;49.816;7.964;2023-02-19T02:31:55;100319.38;;;12.51;61.43
29215;BME280;16252;49.816;7.964;2023-02-19T02:34:27;100353.66;;;12.70;61.88
29215;BME280;16252;49.816;7.964;2023-02-19T02:36:55;100314.13;;;12.39;61.80
29215;BME280;16252;49.816;7.964;2023-02-19T02:39:24;100351.09;;;12.57;61.85
29215;BME280;16252;49.816;7.964;2023-02-19T02:41:55;100356.22;;;12.72;61.79
29215;BME280;16252;49.816;7.964;2023-02-19T02:44:40;100343.91;;;12.69;61.46
29215;BME280;16252;49.816;7.964;2023-02-19T02:47:07;100334.97;;;12.57;61.44
29215;BME280;16252;49.816;7.964;2023-02-19T02:49:55;100338.41;;;12.60;61.45
29215;BME280;16252;49.816;7.964;2023-02-19T02:52:32;100355.00;;;12.65;61.81
29215;BME280;16252;49.816;7.964;2023-02-19T02:55:20;100340.94;;;12.50;61.66
29215;BME280;16252;49.816;7.964;2023-02-19T02:57:46;100319.84;;;12.45;61.54
29215;BME280;16252;49.816;7.964;2023-02-19T03:00:12;100338.03;;;12.53;61.58
29215;BME280;16252;49.816;7.964;2023-02-19T03:02:38;100337.31;;;12.51;61.75
29215;BME280;16252;49.816;7.964;2023-02-19T03:05:17;100342.91;;;12.59;61.89
29215;BME280;16252;49.816;7.964;2023-02-19T03:13:22;100319.97;;;12.55;62.17
29215;BME280;16252;49.816;7.964;2023-02-19T03:16:25;100339.38;;;12.70;61.58
29215;BME280;16252;49.816;7.964;2023-02-19T03:19:13;100334.97;;;12.57;61.87
29215;BME280;16252;49.816;7.964;2023-02-19T03:21:46;100271.91;;;12.18;61.76
29215;BME280;16252;49.816;7.964;2023-02-19T03:24:14;100338.91;;;12.53;61.60
29215;BME280;16252;49.816;7.964;2023-02-19T03:27:03;100356.19;;;12.61;61.44
29215;BME280;16252;49.816;7.964;2023-02-19T03:29:30;100352.31;;;12.53;61.71
29215;BME280;16252;49.816;7.964;2023-02-19T03:32:16;100345.34;;;12.62;61.59
29215;BME280;16252;49.816;7.964;2023-02-19T03:34:53;100314.97;;;12.39;61.62
29215;BME280;16252;49.816;7.964;2023-02-19T03:37:29;100323.25;;;12.47;61.32
29215;BME280;16252;49.816;7.964;2023-02-19T03:39:56;100328.78;;;12.46;61.65
29215;BME280;16252;49.816;7.964;2023-02-19T03:45:37;100351.81;;;12.71;61.21
29215;BME280;16252;49.816;7.964;2023-02-19T03:48:28;100369.75;;;12.70;61.73
29215;BME280;16252;49.816;7.964;2023-02-19T03:51:37;100365.63;;;12.66;61.77
29215;BME280;16252;49.816;7.964;2023-02-19T03:53:51;100356.44;;;12.57;61.93
29215;BME280;16252;49.816;7.964;2023-02-19T03:56:19;100360.84;;;12.70;61.92
29215;BME280;16252;49.816;7.964;2023-02-19T03:58:54;100345.84;;;12.67;61.97
29215;BME280;16252;49.816;7.964;2023-02-19T04:01:29;100361.44;;;12.73;61.64
29215;BME280;16252;49.816;7.964;2023-02-19T04:04:07;100349.72;;;12.63;61.67
29215;BME280;16252;49.816;7.964;2023-02-19T04:06:34;100347.06;;;12.52;61.83
29215;BME280;16252;49.816;7.964;2023-02-19T04:09:03;100336.69;;;12.47;61.99
29215;BME280;16252;49.816;7.964;2023-02-19T04:11:30;100353.28;;;12.52;62.03
29215;BME280;16252;49.816;7.964;2023-02-19T04:14:04;100350.59;;;12.52;61.73
29215;BME280;16252;49.816;7.964;2023-02-19T04:16:33;100325.56;;;12.29;61.99
29215;BME280;16252;49.816;7.964;2023-02-19T04:19:03;100341.44;;;12.55;60.78
29215;BME280;16252;49.816;7.964;2023-02-19T04:21:31;100318.13;;;12.22;61.89
29215;BME280;16252;49.816;7.964;2023-02-19T04:24:04;100330.53;;;12.23;62.11
29215;BME280;16252;49.816;7.964;2023-02-19T04:26:31;100319.22;;;12.08;61.99
29215;BME280;16252;49.816;7.964;2023-02-19T04:28:57;100322.97;;;12.05;61.94
29215;BME280;16252;49.816;7.964;2023-02-19T04:31:23;100357.97;;;12.15;62.42
29215;BME280;16252;49.816;7.964;2023-02-19T04:33:50;100335.91;;;12.00;62.60
29215;BME280;16252;49.816;7.964;2023-02-19T04:36:15;100329.03;;;11.96;62.52
29215;BME280;16252;49.816;7.964;2023-02-19T04:38:40;100351.84;;;12.02;62.60
29215;BME280;16252;49.816;7.964;2023-02-19T04:41:07;100335.41;;;11.95;62.68
29215;BME280;16252;49.816;7.964;2023-02-19T04:43:32;100339.78;;;11.96;62.67
29215;BME280;16252;49.816;7.964;2023-02-19T04:45:59;100352.34;;;11.96;62.91
29215;BME280;16252;49.816;7.964;2023-02-19T04:48:24;100327.34;;;11.71;62.95
29215;BME280;16252;49.816;7.964;2023-02-19T04:50:49;100373.78;;;11.96;63.01
29215;BME280;16252;49.816;7.964;2023-02-19T04:53:15;100343.69;;;11.79;62.83
29215;BME280;16252;49.816;7.964;2023-02-19T04:55:40;100378.84;;;11.87;63.05
29215;BME280;16252;49.816;7.964;2023-02-19T04:58:05;100379.84;;;11.86;63.23
29215;BME280;16252;49.816;7.964;2023-02-19T05:00:31;100389.22;;;11.92;62.88
29215;BME280;16252;49.816;7.964;2023-02-19T05:02:58;100395.34;;;11.94;62.95
29215;BME280;16252;49.816;7.964;2023-02-19T05:05:23;100382.41;;;11.88;63.00
29215;BME280;16252;49.816;7.964;2023-02-19T05:07:48;100381.63;;;11.86;63.04
29215;BME280;16252;49.816;7.964;2023-02-19T05:10:14;100397.69;;;11.99;62.92
29215;BME280;16252;49.816;7.964;2023-02-19T05:12:39;100393.50;;;11.95;63.11
29215;BME280;16252;49.816;7.964;2023-02-19T05:15:04;100405.63;;;12.00;63.09
29215;BME280;16252;49.816;7.964;2023-02-19T05:17:32;100414.38;;;12.02;63.46
29215;BME280;16252;49.816;7.964;2023-02-19T05:19:58;100408.75;;;11.94;63.38
29215;BME280;16252;49.816;7.964;2023-02-19T05:22:23;100393.00;;;11.89;63.48
29215;BME280;16252;49.816;7.964;2023-02-19T05:24:48;100390.63;;;11.85;63.68
29215;BME280;16252;49.816;7.964;2023-02-19T05:27:14;100376.97;;;11.77;63.66
29215;BME280;16252;49.816;7.964;2023-02-19T05:29:39;100388.66;;;11.76;63.57
29215;BME280;16252;49.816;7.964;2023-02-19T05:32:04;100408.03;;;11.79;63.93
29215;BME280;16252;49.816;7.964;2023-02-19T05:34:30;100433.34;;;11.88;63.96
29215;BME280;16252;49.816;7.964;2023-02-19T05:36:55;100417.81;;;11.80;64.18
29215;BME280;16252;49.816;7.964;2023-02-19T05:39:20;100424.44;;;11.87;64.19
29215;BME280;16252;49.816;7.964;2023-02-19T05:41:45;100409.13;;;11.77;64.28
29215;BME280;16252;49.816;7.964;2023-02-19T05:44:11;100404.09;;;11.72;64.18
29215;BME280;16252;49.816;7.964;2023-02-19T05:46:36;100434.72;;;11.93;64.48
29215;BME280;16252;49.816;7.964;2023-02-19T05:49:01;100411.66;;;11.91;64.44
29215;BME280;16252;49.816;7.964;2023-02-19T05:51:27;100427.28;;;11.97;64.37
29215;BME280;16252;49.816;7.964;2023-02-19T05:53:54;100431.56;;;12.00;64.30
29215;BME280;16252;49.816;7.964;2023-02-19T05:56:32;100422.50;;;11.89;64.39
29215;BME280;16252;49.816;7.964;2023-02-19T05:58:59;100452.44;;;12.07;63.94
29215;BME280;16252;49.816;7.964;2023-02-19T06:01:27;100458.69;;;12.08;64.01
29215;BME280;16252;49.816;7.964;2023-02-19T06:03:53;100456.72;;;12.10;63.68
29215;BME280;16252;49.816;7.964;2023-02-19T06:06:18;100409.34;;;11.86;63.45
29215;BME280;16252;49.816;7.964;2023-02-19T06:08:44;100455.75;;;12.11;63.44
29215;BME280;16252;49.816;7.964;2023-02-19T06:11:09;100464.94;;;12.20;63.39
29215;BME280;16252;49.816;7.964;2023-02-19T06:13:35;100447.72;;;12.11;63.33
29215;BME280;16252;49.816;7.964;2023-02-19T06:16:04;100468.84;;;12.27;63.17
29215;BME280;16252;49.816;7.964;2023-02-19T06:18:30;100457.88;;;12.19;62.96
29215;BME280;16252;49.816;7.964;2023-02-19T06:21:06;100465.09;;;12.29;62.93
29215;BME280;16252;49.816;7.964;2023-02-19T06:23:32;100450.66;;;12.19;62.74
29215;BME280;16252;49.816;7.964;2023-02-19T06:26:19;100477.81;;;12.39;62.82
29215;BME280;16252;49.816;7.964;2023-02-19T06:28:45;100459.81;;;12.17;62.76
29215;BME280;16252;49.816;7.964;2023-02-19T06:31:11;100488.03;;;12.33;62.66
29215;BME280;16252;49.816;7.964;2023-02-19T06:33:38;100484.84;;;12.28;62.56
29215;BME280;16252;49.816;7.964;2023-02-19T06:36:05;100483.97;;;12.28;62.53
29215;BME280;16252;49.816;7.964;2023-02-19T06:38:31;100483.97;;;12.28;62.58
29215;BME280;16252;49.816;7.964;2023-02-19T06:41:00;100474.47;;;12.24;62.69
29215;BME280;16252;49.816;7.964;2023-02-19T06:43:26;100489.59;;;12.25;62.47
29215;BME280;16252;49.816;7.964;2023-02-19T06:45:52;100472.97;;;12.20;62.50
29215;BME280;16252;49.816;7.964;2023-02-19T06:48:17;100509.13;;;12.38;62.36
29215;BME280;16252;49.816;7.964;2023-02-19T06:50:42;100517.72;;;12.43;62.33
29215;BME280;16252;49.816;7.964;2023-02-19T06:53:08;100509.66;;;12.43;62.13
29215;BME280;16252;49.816;7.964;2023-02-19T06:55:35;100525.91;;;12.53;62.19
29215;BME280;16252;49.816;7.964;2023-02-19T06:58:00;100502.34;;;12.45;62.16
29215;BME280;16252;49.816;7.964;2023-02-19T07:00:25;100506.50;;;12.49;61.93
29215;BME280;16252;49.816;7.964;2023-02-19T07:02:51;100467.88;;;12.28;62.07
29215;BME280;16252;49.816;7.964;2023-02-19T07:05:21;100497.72;;;12.47;61.91
29215;BME280;16252;49.816;7.964;2023-02-19T07:07:47;100514.91;;;12.45;61.81
29215;BME280;16252;49.816;7.964;2023-02-19T07:10:12;100520.91;;;12.48;61.67
29215;BME280;16252;49.816;7.964;2023-02-19T07:12:37;100528.22;;;12.46;61.87
29215;BME280;16252;49.816;7.964;2023-02-19T07:15:03;100528.97;;;12.48;61.70
29215;BME280;16252;49.816;7.964;2023-02-19T07:17:28;100545.56;;;12.53;61.78
29215;BME280;16252;49.816;7.964;2023-02-19T07:19:53;100537.53;;;12.53;61.75
29215;BME280;16252;49.816;7.964;2023-02-19T07:22:19;100562.56;;;12.65;61.45
29215;BME280;16252;49.816;7.964;2023-02-19T07:24:44;100536.53;;;12.54;61.46
29215;BME280;16252;49.816;7.964;2023-02-19T07:27:09;100555.25;;;12.67;61.53
29215;BME280;16252;49.816;7.964;2023-02-19T07:29:35;100543.75;;;12.65;61.44
29215;BME280;16252;49.816;7.964;2023-02-19T07:32:00;100518.59;;;12.55;61.44
29215;BME280;16252;49.816;7.964;2023-02-19T07:34:25;100546.22;;;12.68;61.45
29215;BME280;16252;49.816;7.964;2023-02-19T07:36:50;100555.66;;;12.74;61.23
29215;BME280;16252;49.816;7.964;2023-02-19T07:39:16;100580.06;;;12.82;61.31
29215;BME280;16252;49.816;7.964;2023-02-19T07:41:41;100568.09;;;12.86;61.12
29215;BME280;16252;49.816;7.964;2023-02-19T07:44:06;100571.03;;;12.83;61.04
29215;BME280;16252;49.816;7.964;2023-02-19T07:46:32;100575.94;;;12.89;61.07
29215;BME280;16252;49.816;7.964;2023-02-19T07:48:58;100580.59;;;12.87;60.88
29215;BME280;16252;49.816;7.964;2023-02-19T07:51:23;100590.63;;;12.96;60.89
29215;BME280;16252;49.816;7.964;2023-02-19T07:53:49;100581.47;;;12.99;60.62
29215;BME280;16252;49.816;7.964;2023-02-19T07:56:15;100588.06;;;13.06;60.51
29215;BME280;16252;49.816;7.964;2023-02-19T07:58:41;100569.72;;;12.89;60.39
29215;BME280;16252;49.816;7.964;2023-02-19T08:01:13;100577.19;;;12.96;60.48
29215;BME280;16252;49.816;7.964;2023-02-19T08:03:39;100580.25;;;13.03;60.45
29215;BME280;16252;49.816;7.964;2023-02-19T08:06:05;100600.91;;;13.14;60.43
29215;BME280;16252;49.816;7.964;2023-02-19T08:08:30;100585.88;;;13.11;60.45
29215;BME280;16252;49.816;7.964;2023-02-19T08:11:02;100605.25;;;13.28;59.97
29215;BME280;16252;49.816;7.964;2023-02-19T08:13:48;100605.84;;;13.31;59.69
29215;BME280;16252;49.816;7.964;2023-02-19T08:16:14;100608.81;;;13.39;60.15
29215;BME280;16252;49.816;7.964;2023-02-19T08:18:44;100612.22;;;13.41;59.90
29215;BME280;16252;49.816;7.964;2023-02-19T08:21:10;100622.38;;;13.49;60.10
29215;BME280;16252;49.816;7.964;2023-02-19T08:23:36;100572.88;;;13.29;59.58
29215;BME280;16252;49.816;7.964;2023-02-19T08:26:02;100621.66;;;13.58;60.14
29215;BME280;16252;49.816;7.964;2023-02-19T08:28:28;100622.66;;;13.57;60.17
29215;BME280;16252;49.816;7.964;2023-02-19T08:30:58;100628.50;;;13.62;60.20
29215;BME280;16252;49.816;7.964;2023-02-19T08:33:24;100641.31;;;13.59;60.45
29215;BME280;16252;49.816;7.964;2023-02-19T08:35:49;100643.66;;;13.63;60.62
29215;BME280;16252;49.816;7.964;2023-02-19T08:38:14;100598.44;;;13.35;60.23
29215;BME280;16252;49.816;7.964;2023-02-19T08:40:42;100645.75;;;13.60;60.37
29215;BME280;16252;49.816;7.964;2023-02-19T08:43:13;100656.75;;;13.68;60.55
29215;BME280;16252;49.816;7.964;2023-02-19T08:45:40;100644.75;;;13.61;60.72
29215;BME280;16252;49.816;7.964;2023-02-19T08:48:07;100672.38;;;13.63;60.79
29215;BME280;16252;49.816;7.964;2023-02-19T08:50:33;100633.38;;;13.46;60.60
29215;BME280;16252;49.816;7.964;2023-02-19T08:53:00;100643.06;;;13.60;60.80
29215;BME280;16252;49.816;7.964;2023-02-19T08:55:25;100646.47;;;13.51;60.58
29215;BME280;16252;49.816;7.964;2023-02-19T08:57:51;100662.09;;;13.57;60.60
29215;BME280;16252;49.816;7.964;2023-02-19T09:00:16;100659.28;;;13.58;60.37
29215;BME280;16252;49.816;7.964;2023-02-19T09:02:41;100657.69;;;13.56;60.17
29215;BME280;16252;49.816;7.964;2023-02-19T09:05:07;100671.78;;;13.71;60.02
29215;BME280;16252;49.816;7.964;2023-02-19T09:07:32;100672.53;;;13.73;59.96
29215;BME280;16252;49.816;7.964;2023-02-19T09:09:59;100672.03;;;13.79;59.92
29215;BME280;16252;49.816;7.964;2023-02-19T09:12:24;100663.47;;;13.74;59.66
29215;BME280;16252;49.816;7.964;2023-02-19T09:14:50;100670.19;;;13.79;59.69
29215;BME280;16252;49.816;7.964;2023-02-19T09:17:15;100671.78;;;13.82;59.48
29215;BME280;16252;49.816;7.964;2023-02-19T09:19:40;100673.63;;;13.93;59.47
29215;BME280;16252;49.816;7.964;2023-02-19T09:22:06;100666.91;;;13.98;59.44
29215;BME280;16252;49.816;7.964;2023-02-19T09:24:31;100627.03;;;13.81;59.37
29215;BME280;16252;49.816;7.964;2023-02-19T09:26:57;100661.53;;;13.98;59.26
29215;BME280;16252;49.816;7.964;2023-02-19T09:29:26;100676.06;;;14.07;59.01
29215;BME280;16252;49.816;7.964;2023-02-19T09:31:59;100688.63;;;14.18;58.96
29215;BME280;16252;49.816;7.964;2023-02-19T09:34:25;100677.53;;;14.00;58.71
29215;BME280;16252;49.816;7.964;2023-02-19T09:36:51;100675.34;;;13.94;58.72
29215;BME280;16252;49.816;7.964;2023-02-19T09:39:17;100667.50;;;13.79;58.89
29215;BME280;16252;49.816;7.964;2023-02-19T09:41:48;100690.50;;;13.95;59.18
29215;BME280;16252;49.816;7.964;2023-02-19T09:44:23;100678.25;;;14.02;59.09
29215;BME280;16252;49.816;7.964;2023-02-19T09:46:51;100663.84;;;14.03;59.22
29215;BME280;16252;49.816;7.964;2023-02-19T09:49:21;100651.72;;;14.08;58.80
29215;BME280;16252;49.816;7.964;2023-02-19T09:51:51;100711.53;;;14.57;58.45
29215;BME280;16252;49.816;7.964;2023-02-19T09:54:29;100697.78;;;14.60;58.72
29215;BME280;16252;49.816;7.964;2023-02-19T09:56:56;100712.09;;;14.72;58.34
29215;BME280;16252;49.816;7.964;2023-02-19T09:59:28;100712.41;;;14.90;57.81
29215;BME280;16252;49.816;7.964;2023-02-19T10:02:13;100695.97;;;14.93;58.00
29215;BME280;16252;49.816;7.964;2023-02-19T10:04:40;100713.44;;;15.10;57.63
29215;BME280;16252;49.816;7.964;2023-02-19T10:07:11;100715.22;;;15.21;57.32
29215;BME280;16252;49.816;7.964;2023-02-19T10:09:37;100701.00;;;15.18;57.00
29215;BME280;16252;49.816;7.964;2023-02-19T10:12:12;100717.44;;;15.48;56.93
29215;BME280;16252;49.816;7.964;2023-02-19T10:14:43;100723.78;;;15.47;56.17
29215;BME280;16252;49.816;7.964;2023-02-19T10:17:21;100684.53;;;15.33;56.23
29215;BME280;16252;49.816;7.964;2023-02-19T10:19:47;100721.81;;;15.49;56.51
29215;BME280;16252;49.816;7.964;2023-02-19T10:22:13;100702.88;;;15.39;56.18
29215;BME280;16252;49.816;7.964;2023-02-19T10:24:39;100719.97;;;15.49;55.86
29215;BME280;16252;49.816;7.964;2023-02-19T10:27:11;100740.50;;;15.61;55.65
29215;BME280;16252;49.816;7.964;2023-02-19T10:29:36;100719.59;;;15.54;55.42
29215;BME280;16252;49.816;7.964;2023-02-19T10:32:20;100722.34;;;15.64;56.06
29215;BME280;16252;49.816;7.964;2023-02-19T10:35:07;100745.88;;;15.73;55.79
29215;BME280;16252;49.816;7.964;2023-02-19T10:37:33;100742.63;;;15.58;54.95
29215;BME280;16252;49.816;7.964;2023-02-19T10:39:59;100739.94;;;15.58;55.16
29215;BME280;16252;49.816;7.964;2023-02-19T10:42:25;100729.53;;;15.53;54.97
29215;BME280;16252;49.816;7.964;2023-02-19T10:44:55;100743.19;;;15.61;54.38
29215;BME280;16252;49.816;7.964;2023-02-19T10:47:25;100742.22;;;15.63;54.24
29215;BME280;16252;49.816;7.964;2023-02-19T10:49:52;100781.81;;;15.73;54.16
29215;BME280;16252;49.816;7.964;2023-02-19T10:52:26;100758.88;;;15.68;54.56
29215;BME280;16252;49.816;7.964;2023-02-19T10:55:12;100766.50;;;15.63;54.64
29215;BME280;16252;49.816;7.964;2023-02-19T10:57:38;100787.81;;;15.66;53.76
29215;BME280;16252;49.816;7.964;2023-02-19T11:02:38;100799.44;;;15.45;53.97
29215;BME280;16252;49.816;7.964;2023-02-19T11:07:37;100810.16;;;15.35;53.94
29215;BME280;16252;49.816;7.964;2023-02-19T11:10:04;100831.66;;;15.47;53.93
29215;BME280;16252;49.816;7.964;2023-02-19T11:12:32;100792.75;;;15.28;53.99
29215;BME280;16252;49.816;7.964;2023-02-19T11:15:24;100807.72;;;15.32;54.28
29215;BME280;16252;49.816;7.964;2023-02-19T11:20:31;100799.34;;;15.35;54.67
29215;BME280;16252;49.816;7.964;2023-02-19T11:23:05;100772.59;;;15.44;54.82
29215;BME280;16252;49.816;7.964;2023-02-19T11:25:43;100746.63;;;15.64;55.26
29215;BME280;16252;49.816;7.964;2023-02-19T11:30:43;100767.69;;;16.42;54.53
29215;BME280;16252;49.816;7.964;2023-02-19T11:35:41;100782.25;;;16.92;53.05
29215;BME280;16252;49.816;7.964;2023-02-19T11:38:09;100760.16;;;16.96;52.87
29215;BME280;16252;49.816;7.964;2023-02-19T11:40:56;100782.84;;;17.24;53.69
29215;BME280;16252;49.816;7.964;2023-02-19T11:46:31;100779.00;;;17.37;52.02
29215;BME280;16252;49.816;7.964;2023-02-19T11:51:53;100805.50;;;17.43;51.38
29215;BME280;16252;49.816;7.964;2023-02-19T12:02:57;100807.03;;;17.26;51.40
29215;BME280;16252;49.816;7.964;2023-02-19T12:06:00;100813.56;;;17.23;51.41
29215;BME280;16252;49.816;7.964;2023-02-19T12:11:22;100794.91;;;17.01;50.64
29215;BME280;16252;49.816;7.964;2023-02-19T12:14:08;100773.81;;;16.85;50.58
29215;BME280;16252;49.816;7.964;2023-02-19T12:22:31;100802.41;;;16.87;50.79
29215;BME280;16252;49.816;7.964;2023-02-19T12:25:08;100788.56;;;16.71;50.96
29215;BME280;16252;49.816;7.964;2023-02-19T12:33:04;100792.94;;;16.72;50.75
29215;BME280;16252;49.816;7.964;2023-02-19T12:35:45;100782.56;;;16.67;50.54
29215;BME280;16252;49.816;7.964;2023-02-19T12:38:30;100786.78;;;16.60;50.70
29215;BME280;16252;49.816;7.964;2023-02-19T12:41:17;100804.28;;;16.66;50.87
29215;BME280;16252;49.816;7.964;2023-02-19T12:43:58;100788.06;;;16.56;50.91
29215;BME280;16252;49.816;7.964;2023-02-19T12:46:33;100799.31;;;16.61;50.56
29215;BME280;16252;49.816;7.964;2023-02-19T12:51:49;100799.78;;;16.66;51.51
29215;BME280;16252;49.816;7.964;2023-02-19T12:54:20;100798.44;;;16.61;50.33
29215;BME280;16252;49.816;7.964;2023-02-19T12:57:03;100794.91;;;16.60;51.16
29215;BME280;16252;49.816;7.964;2023-02-19T12:59:34;100796.63;;;16.61;50.43
29215;BME280;16252;49.816;7.964;2023-02-19T13:04:48;100790.66;;;16.67;50.99
29215;BME280;16252;49.816;7.964;2023-02-19T13:07:26;100782.50;;;16.58;50.22
29215;BME280;16252;49.816;7.964;2023-02-19T13:13:02;100766.53;;;16.45;50.40
29215;BME280;16252;49.816;7.964;2023-02-19T13:15:33;100774.81;;;16.43;50.38
29215;BME280;16252;49.816;7.964;2023-02-19T13:18:02;100776.78;;;16.41;50.06
29215;BME280;16252;49.816;7.964;2023-02-19T13:20:41;100795.28;;;16.46;50.43
29215;BME280;16252;49.816;7.964;2023-02-19T13:23:20;100788.72;;;16.39;50.39
29215;BME280;16252;49.816;7.964;2023-02-19T13:29:14;100773.72;;;16.25;50.74
29215;BME280;16252;49.816;7.964;2023-02-19T13:32:17;100781.63;;;16.17;50.62
29215;BME280;16252;49.816;7.964;2023-02-19T13:34:53;100771.19;;;16.02;50.39
29215;BME280;16252;49.816;7.964;2023-02-19T13:37:23;100756.19;;;15.89;50.72
29215;BME280;16252;49.816;7.964;2023-02-19T13:39:53;100763.91;;;15.93;50.44
29215;BME280;16252;49.816;7.964;2023-02-19T13:42:33;100765.59;;;15.94;51.29
29215;BME280;16252;49.816;7.964;2023-02-19T13:45:01;100756.31;;;15.87;50.78
29215;BME280;16252;49.816;7.964;2023-02-19T13:47:47;100773.19;;;16.00;50.93
29215;BME280;16252;49.816;7.964;2023-02-19T13:50:28;100786.22;;;15.95;50.60
29215;BME280;16252;49.816;7.964;2023-02-19T13:52:55;100784.19;;;15.88;50.84
29215;BME280;16252;49.816;7.964;2023-02-19T14:01:07;100784.31;;;15.86;51.06
29215;BME280;16252;49.816;7.964;2023-02-19T14:06:03;100798.97;;;15.93;50.98
29215;BME280;16252;49.816;7.964;2023-02-19T14:08:56;100800.34;;;16.09;51.56
29215;BME280;16252;49.816;7.964;2023-02-19T14:14:33;100809.75;;;16.14;51.17
29215;BME280;16252;49.816;7.964;2023-02-19T14:17:01;100786.66;;;16.00;51.10
29215;BME280;16252;49.816;7.964;2023-02-19T14:31:07;100812.72;;;16.11;50.85
29215;BME280;16252;49.816;7.964;2023-02-19T14:33:31;100823.13;;;16.16;50.55
29215;BME280;16252;49.816;7.964;2023-02-19T14:36:18;100817.34;;;16.20;50.64
29215;BME280;16252;49.816;7.964;2023-02-19T14:38:55;100808.75;;;16.15;50.43
29215;BME280;16252;49.816;7.964;2023-02-19T14:41:22;100794.16;;;15.97;50.72
29215;BME280;16252;49.816;7.964;2023-02-19T14:43:50;100808.28;;;16.00;50.42